Palito Blanco, Texas
Current Conditions -  °F | °C
As of 8:53 PM on Monday 20 Oct 2014 (Local Time) from KALI Reporting Station
Clear Clear  
Wind Chill: 71°   Ceiling: Unl
Heat Index: 71°   Visibility: 9mi
Dew Point: 68°   Wind: 5mph
Humidity: 90%   Direction: 30°NNE
Pressure: 29.97"   Gusts: NA
Location:  27.6821°N, 98.1034°W
Report Text: KALI 210153Z AUTO 03004KT 9SM CLR 22/20 A2997 RMK AO2 SLP144 T02170200
Loading
Personal Weather Stations






























Interactive Weather Map New forecast layout! Learn more

10-Day Weather Forecast

Advertisements
Track Severe Weather on mobile